Time;durP1;ratioP1;P1;durP2;ratioP2;P2;SDS_P1;SDS_P2;PMS_P1;PMS_P2;Temp;Humidity;BMP_temperature;BMP_pressure;BME280_temperature;BME280_humidity;BME280_pressure;Samples;Min_cycle;Max_cycle;Signal;HPM_P1;HPM_P2
2023/05/24 00:00:08;;;;;;;0.77;0.77;;;;;13.00;96299.00;;;;5035719;28;20201;-57
2023/05/24 00:02:36;;;;;;;1.73;1.63;;;;;13.00;96294.00;;;;5035270;28;20216;-57
2023/05/24 00:05:06;;;;;;;1.37;1.27;;;;;13.00;96307.00;;;;5035573;28;20200;-57
2023/05/24 00:07:34;;;;;;;1.47;1.03;;;;;13.10;96294.00;;;;5034070;28;20211;-57
2023/05/24 00:10:03;;;;;;;0.70;0.70;;;;;13.00;96290.00;;;;5035294;28;20216;-57
2023/05/24 00:12:30;;;;;;;1.63;1.53;;;;;13.00;96289.00;;;;5035685;28;20205;-57
2023/05/24 00:14:57;;;;;;;1.30;0.93;;;;;12.90;96292.00;;;;5035149;28;20201;-57
2023/05/24 00:17:25;;;;;;;0.90;0.90;;;;;12.90;96287.00;;;;5033836;28;20262;-57
2023/05/24 00:19:52;;;;;;;0.80;0.80;;;;;13.00;96287.00;;;;5035120;28;20196;-57
2023/05/24 00:22:20;;;;;;;0.70;0.70;;;;;12.90;96281.00;;;;5035062;28;20221;-57
2023/05/24 00:24:48;;;;;;;1.23;1.23;;;;;12.90;96278.00;;;;5034048;28;20228;-57
2023/05/24 00:27:17;;;;;;;1.03;1.03;;;;;12.90;96283.00;;;;5033652;28;20684;-57
2023/05/24 00:29:44;;;;;;;0.73;0.73;;;;;12.90;96275.00;;;;5035153;28;20193;-57
2023/05/24 00:32:11;;;;;;;1.00;1.00;;;;;12.90;96270.00;;;;5034776;28;20579;-57
2023/05/24 00:34:39;;;;;;;0.93;0.93;;;;;12.80;96275.00;;;;5034833;28;20189;-57
2023/05/24 00:37:07;;;;;;;0.80;0.80;;;;;12.70;96266.00;;;;5035038;28;20200;-57
2023/05/24 00:39:34;;;;;;;0.73;0.73;;;;;12.70;96275.00;;;;5035015;28;20212;-58
2023/05/24 00:42:02;;;;;;;4.83;1.50;;;;;12.70;96270.00;;;;5034529;28;20227;-57
2023/05/24 00:44:31;;;;;;;0.67;0.67;;;;;12.60;96271.00;;;;5033399;28;20571;-57
2023/05/24 00:46:58;;;;;;;0.73;0.73;;;;;12.80;96271.00;;;;5034560;28;20193;-57
2023/05/24 00:49:26;;;;;;;0.77;0.77;;;;;12.80;96274.00;;;;5034347;28;20193;-56
2023/05/24 00:51:54;;;;;;;0.73;0.73;;;;;12.70;96272.00;;;;5034080;28;20618;-57
2023/05/24 00:54:23;;;;;;;1.43;1.10;;;;;12.70;96280.00;;;;5034985;28;20200;-57
2023/05/24 00:56:50;;;;;;;0.70;0.70;;;;;12.70;96266.00;;;;5034397;28;20251;-57
2023/05/24 00:59:18;;;;;;;0.97;0.97;;;;;12.70;96266.00;;;;5034883;28;20200;-57
2023/05/24 01:01:46;;;;;;;0.70;0.70;;;;;12.70;96270.00;;;;5045883;22;20228;-56
2023/05/24 01:04:16;;;;;;;0.90;0.90;;;;;12.70;96277.00;;;;4976184;28;20300;-55
2023/05/24 01:06:52;;;;;;;1.27;1.27;;;;;12.70;96270.00;;;;4976140;28;20205;-55
2023/05/24 01:09:28;;;;;;;1.03;1.03;;;;;12.50;96273.00;;;;4975613;28;20590;-56
2023/05/24 01:12:07;;;;;;;1.20;1.10;;;;;12.50;96269.00;;;;4975476;28;20202;-56
2023/05/24 01:14:44;;;;;;;1.03;1.03;;;;;12.60;96276.00;;;;4975542;28;20178;-55
2023/05/24 01:17:19;;;;;;;1.00;1.00;;;;;12.60;96269.00;;;;4975530;28;20225;-55
2023/05/24 01:19:54;;;;;;;3.27;1.27;;;;;12.70;96264.00;;;;4975495;28;20529;-56
2023/05/24 01:22:45;;;;;;;0.87;0.87;;;;;12.50;96273.00;;;;4974910;28;20222;-55
2023/05/24 01:25:17;;;;;;;2.10;1.27;;;;;12.50;96272.00;;;;4975064;28;20183;-56
2023/05/24 01:27:47;;;;;;;1.23;1.13;;;;;12.50;96269.00;;;;4975369;28;20179;-56
2023/05/24 01:30:15;;;;;;;0.73;0.73;;;;;12.40;96259.00;;;;4975062;28;20254;-56
2023/05/24 01:32:43;;;;;;;0.90;0.80;;;;;12.50;96259.00;;;;4975041;28;20225;-56
2023/05/24 01:35:10;;;;;;;0.90;0.90;;;;;12.40;96257.00;;;;4974935;28;20195;-55
2023/05/24 01:37:38;;;;;;;0.77;0.77;;;;;12.40;96264.00;;;;4975032;28;20281;-55
2023/05/24 01:40:07;;;;;;;0.70;0.70;;;;;12.30;96263.00;;;;4974872;28;20195;-56
2023/05/24 01:42:41;;;;;;;0.70;0.70;;;;;12.30;96258.00;;;;4974669;28;20265;-56
2023/05/24 01:45:18;;;;;;;1.03;1.03;;;;;12.30;96257.00;;;;4975046;28;20179;-56
2023/05/24 01:47:57;;;;;;;0.77;0.77;;;;;12.40;96263.00;;;;4975334;28;20198;-55
2023/05/24 01:50:28;;;;;;;1.10;1.03;;;;;12.40;96264.00;;;;4975048;28;20222;-56
2023/05/24 01:52:58;;;;;;;1.10;1.00;;;;;12.30;96268.00;;;;4974950;28;20207;-56
2023/05/24 01:55:29;;;;;;;3.03;1.37;;;;;12.30;96266.00;;;;4974625;28;20195;-55
2023/05/24 01:58:00;;;;;;;0.77;0.77;;;;;12.30;96262.00;;;;4974982;28;20187;-55
2023/05/24 02:00:30;;;;;;;1.30;1.10;;;;;12.30;96265.00;;;;4974865;28;20195;-56
2023/05/24 02:02:58;;;;;;;1.10;1.07;;;;;12.20;96266.00;;;;4974477;28;20238;-56
2023/05/24 02:05:26;;;;;;;1.57;1.47;;;;;12.20;96261.00;;;;4974476;28;20198;-55
2023/05/24 02:07:53;;;;;;;1.30;1.30;;;;;12.30;96263.00;;;;4974424;28;20570;-55
2023/05/24 02:10:21;;;;;;;1.97;1.80;;;;;12.20;96263.00;;;;4974709;28;20199;-55
2023/05/24 02:12:48;;;;;;;3.40;1.13;;;;;12.20;96263.00;;;;4974373;28;20218;-57
2023/05/24 02:15:15;;;;;;;0.97;0.97;;;;;12.20;96266.00;;;;4974374;28;20249;-55
2023/05/24 02:17:44;;;;;;;0.90;0.90;;;;;12.00;96259.00;;;;4974706;28;20554;-55
2023/05/24 02:20:13;;;;;;;1.93;1.50;;;;;12.10;96262.00;;;;4974294;28;20206;-55
2023/05/24 02:22:40;;;;;;;0.90;0.90;;;;;12.10;96268.00;;;;4974168;28;20218;-56
2023/05/24 02:25:08;;;;;;;1.17;1.17;;;;;12.10;96262.00;;;;4974273;28;20289;-55
2023/05/24 02:27:36;;;;;;;1.00;1.00;;;;;12.00;96268.00;;;;4974317;28;20195;-55
2023/05/24 02:30:03;;;;;;;1.30;1.20;;;;;11.90;96269.00;;;;4974293;28;20658;-55
2023/05/24 02:32:32;;;;;;;0.90;0.90;;;;;12.00;96269.00;;;;4972967;28;20223;-55
2023/05/24 02:35:01;;;;;;;1.23;1.23;;;;;11.90;96263.00;;;;4974201;28;20199;-55
2023/05/24 02:37:29;;;;;;;7.60;2.17;;;;;12.00;96266.00;;;;4974525;28;20199;-55
2023/05/24 02:39:56;;;;;;;0.93;0.93;;;;;11.80;96259.00;;;;4974501;28;20212;-55
2023/05/24 02:42:24;;;;;;;5.63;2.20;;;;;11.80;96261.00;;;;4974134;28;20219;-55
2023/05/24 02:44:51;;;;;;;1.17;1.17;;;;;11.80;96261.00;;;;4974460;28;20623;-55
2023/05/24 02:47:19;;;;;;;1.00;1.00;;;;;11.80;96262.00;;;;4974634;28;20199;-55
2023/05/24 02:49:46;;;;;;;1.67;1.57;;;;;11.70;96262.00;;;;4974108;28;20191;-55
2023/05/24 02:52:20;;;;;;;1.20;1.20;;;;;11.70;96260.00;;;;4973970;28;20218;-55
2023/05/24 02:54:47;;;;;;;0.97;0.97;;;;;11.70;96261.00;;;;4974695;28;20187;-56
2023/05/24 02:57:15;;;;;;;1.77;1.17;;;;;11.60;96263.00;;;;4974124;28;20203;-55
2023/05/24 02:59:42;;;;;;;6.97;1.57;;;;;11.60;96261.00;;;;4974311;28;20222;-55
2023/05/24 03:02:12;;;;;;;1.10;1.10;;;;;11.70;96261.00;;;;4973967;28;20317;-55
2023/05/24 03:04:40;;;;;;;2.20;2.00;;;;;11.60;96256.00;;;;4974340;28;20270;-56
2023/05/24 03:07:07;;;;;;;0.90;0.90;;;;;11.60;96257.00;;;;4973996;28;20206;-56
2023/05/24 03:09:36;;;;;;;1.20;1.20;;;;;11.70;96260.00;;;;4974227;28;20253;-56
2023/05/24 03:12:03;;;;;;;1.30;1.20;;;;;11.70;96267.00;;;;4973907;28;20211;-60
2023/05/24 03:14:31;;;;;;;0.80;0.80;;;;;11.70;96259.00;;;;4976140;28;20191;-56
2023/05/24 03:16:58;;;;;;;1.47;1.23;;;;;11.70;96267.00;;;;4976485;28;20209;-56
2023/05/24 03:19:25;;;;;;;1.17;1.07;;;;;11.60;96260.00;;;;4977370;28;20206;-56
2023/05/24 03:21:53;;;;;;;4.20;1.30;;;;;11.50;96264.00;;;;4977671;28;20227;-56
2023/05/24 03:24:20;;;;;;;1.17;1.17;;;;;11.40;96258.00;;;;4977206;28;20227;-56
2023/05/24 03:26:49;;;;;;;1.07;1.07;;;;;11.60;96262.00;;;;4977241;28;20210;-56
2023/05/24 03:29:16;;;;;;;5.07;1.10;;;;;11.50;96262.00;;;;4977202;28;20198;-56
2023/05/24 03:31:44;;;;;;;1.90;1.80;;;;;11.40;96252.00;;;;4977073;28;20198;-56
2023/05/24 03:34:11;;;;;;;0.80;0.80;;;;;11.40;96268.00;;;;4977361;28;20555;-56
2023/05/24 03:36:39;;;;;;;1.53;1.43;;;;;11.30;96267.00;;;;4977085;28;20210;-56
2023/05/24 03:39:06;;;;;;;1.00;1.00;;;;;11.40;96257.00;;;;4977303;28;20249;-56
2023/05/24 03:41:34;;;;;;;3.90;1.17;;;;;11.40;96258.00;;;;4976965;28;20230;-56
2023/05/24 03:44:03;;;;;;;0.73;0.73;;;;;11.30;96255.00;;;;4976838;28;20215;-56
2023/05/24 03:46:30;;;;;;;0.70;0.70;;;;;11.30;96262.00;;;;4976850;28;20195;-56
2023/05/24 03:48:58;;;;;;;0.87;0.87;;;;;11.30;96265.00;;;;4976826;28;20203;-56
2023/05/24 03:51:28;;;;;;;0.93;0.93;;;;;11.30;96267.00;;;;4976785;28;20195;-56
2023/05/24 03:53:56;;;;;;;1.07;1.07;;;;;11.30;96270.00;;;;4976988;28;20226;-56
2023/05/24 03:56:25;;;;;;;0.93;0.93;;;;;11.40;96261.00;;;;4975489;28;20203;-56
2023/05/24 03:58:52;;;;;;;0.93;0.93;;;;;11.30;96255.00;;;;4976538;28;20666;-56
2023/05/24 04:01:21;;;;;;;1.50;1.13;;;;;11.30;96246.00;;;;4976574;28;20658;-56
2023/05/24 04:03:50;;;;;;;0.70;0.70;;;;;11.30;96252.00;;;;4976355;28;20233;-56
2023/05/24 04:06:17;;;;;;;2.07;1.70;;;;;11.30;96247.00;;;;4976822;28;20198;-56
2023/05/24 04:08:44;;;;;;;1.47;1.37;;;;;11.30;96250.00;;;;4976746;28;20557;-56
2023/05/24 04:11:12;;;;;;;1.47;1.37;;;;;11.40;96254.00;;;;4976444;28;20199;-56
2023/05/24 04:13:40;;;;;;;1.13;1.13;;;;;11.40;96247.00;;;;4976295;28;20218;-56
2023/05/24 04:16:08;;;;;;;2.33;1.73;;;;;11.40;96248.00;;;;4976596;28;20549;-56
2023/05/24 04:18:37;;;;;;;0.80;0.80;;;;;11.40;96256.00;;;;4976326;28;20226;-56
2023/05/24 04:21:04;;;;;;;0.90;0.90;;;;;11.30;96248.00;;;;4976574;28;20250;-56
2023/05/24 04:23:32;;;;;;;1.33;1.33;;;;;11.30;96253.00;;;;4976635;28;20230;-57
2023/05/24 04:25:59;;;;;;;1.07;1.07;;;;;11.30;96250.00;;;;4977009;28;20265;-56
2023/05/24 04:28:26;;;;;;;1.87;1.77;;;;;11.20;96257.00;;;;4976151;28;20665;-55
2023/05/24 04:30:56;;;;;;;0.80;0.80;;;;;11.20;96259.00;;;;4976661;28;20195;-56
2023/05/24 04:33:23;;;;;;;1.30;1.30;;;;;11.30;96254.00;;;;4976216;28;20221;-56
2023/05/24 04:35:52;;;;;;;1.73;1.27;;;;;11.30;96256.00;;;;4976164;28;20202;-56
2023/05/24 04:38:20;;;;;;;1.30;1.30;;;;;11.50;96264.00;;;;4974632;28;20199;-56
2023/05/24 04:40:47;;;;;;;0.80;0.80;;;;;11.50;96251.00;;;;4976177;28;20202;-56
2023/05/24 04:43:15;;;;;;;1.63;1.53;;;;;11.60;96260.00;;;;4975649;28;20251;-56
2023/05/24 04:45:42;;;;;;;2.40;1.43;;;;;11.60;96259.00;;;;4975806;28;20198;-56
2023/05/24 04:48:10;;;;;;;2.00;1.90;;;;;11.60;96271.00;;;;4975777;28;20205;-56
2023/05/24 04:50:37;;;;;;;2.10;1.90;;;;;11.70;96268.00;;;;4975981;28;20191;-56
2023/05/24 04:53:06;;;;;;;1.37;1.27;;;;;11.60;96272.00;;;;4975532;28;20211;-56
2023/05/24 04:55:34;;;;;;;3.40;1.10;;;;;11.80;96282.00;;;;4975884;28;20670;-59
2023/05/24 04:58:02;;;;;;;1.00;1.00;;;;;11.90;96284.00;;;;4975573;28;20202;-56
2023/05/24 05:00:29;;;;;;;17.20;1.63;;;;;12.10;96279.00;;;;4975550;28;20203;-56
2023/05/24 05:02:57;;;;;;;0.63;0.63;;;;;12.00;96279.00;;;;4975175;28;20222;-56
2023/05/24 05:05:24;;;;;;;0.93;0.93;;;;;12.00;96277.00;;;;4975437;28;20203;-56
2023/05/24 05:07:51;;;;;;;3.97;1.97;;;;;12.10;96274.00;;;;4975337;28;20195;-56
2023/05/24 05:10:20;;;;;;;1.10;1.10;;;;;12.00;96272.00;;;;4975319;28;20205;-56
2023/05/24 05:12:48;;;;;;;1.43;1.33;;;;;11.90;96271.00;;;;4975360;28;20587;-56
2023/05/24 05:15:15;;;;;;;1.03;1.03;;;;;12.00;96276.00;;;;4975476;28;20198;-56
2023/05/24 05:17:43;;;;;;;0.80;0.80;;;;;12.00;96267.00;;;;4975207;28;20284;-56
2023/05/24 05:20:10;;;;;;;4.93;1.77;;;;;11.90;96274.00;;;;4975442;28;20206;-56
2023/05/24 05:22:38;;;;;;;1.07;1.07;;;;;11.80;96278.00;;;;4973837;28;20223;-56
2023/05/24 05:25:06;;;;;;;1.50;1.47;;;;;11.60;96283.00;;;;4975027;28;20238;-56
2023/05/24 05:27:35;;;;;;;1.17;1.17;;;;;11.70;96281.00;;;;4975105;28;20558;-56
2023/05/24 05:30:02;;;;;;;9.27;1.87;;;;;11.70;96272.00;;;;4974979;28;20206;-56
2023/05/24 05:32:30;;;;;;;1.33;1.23;;;;;11.70;96272.00;;;;4973623;28;20582;-56
2023/05/24 05:34:57;;;;;;;1.40;1.37;;;;;11.70;96270.00;;;;4974933;28;20267;-56
2023/05/24 05:37:24;;;;;;;0.80;0.80;;;;;11.60;96268.00;;;;4974757;28;20221;-56
2023/05/24 05:39:52;;;;;;;0.70;0.70;;;;;11.50;96276.00;;;;4973605;28;20198;-56
2023/05/24 05:42:19;;;;;;;0.63;0.63;;;;;11.50;96276.00;;;;4974785;28;20273;-56
2023/05/24 05:44:48;;;;;;;2.43;1.30;;;;;11.60;96275.00;;;;4974783;28;20225;-56
2023/05/24 05:47:15;;;;;;;0.90;0.90;;;;;11.60;96274.00;;;;4974720;28;20674;-55
2023/05/24 05:49:43;;;;;;;1.30;1.27;;;;;11.60;96262.00;;;;4974748;28;20202;-55
2023/05/24 05:52:10;;;;;;;0.87;0.87;;;;;11.80;96262.00;;;;4974670;28;20218;-56
2023/05/24 05:54:38;;;;;;;15.17;1.60;;;;;11.80;96264.00;;;;4975163;28;20195;-57
2023/05/24 05:57:07;;;;;;;1.60;1.57;;;;;11.90;96272.00;;;;4974882;28;20245;-56
2023/05/24 05:59:34;;;;;;;1.10;1.10;;;;;12.00;96266.00;;;;4974596;28;20230;-56
2023/05/24 06:02:04;;;;;;;0.70;0.70;;;;;12.10;96271.00;;;;4974377;28;20222;-56
2023/05/24 06:04:31;;;;;;;1.30;1.27;;;;;12.00;96273.00;;;;4974800;28;20229;-56
2023/05/24 06:06:59;;;;;;;2.30;2.10;;;;;12.00;96278.00;;;;4974471;28;20194;-56
2023/05/24 06:09:26;;;;;;;2.23;1.13;;;;;12.00;96273.00;;;;4974708;28;20566;-55
2023/05/24 06:11:54;;;;;;;1.53;1.43;;;;;12.00;96275.00;;;;4974446;28;20226;-56
2023/05/24 06:14:23;;;;;;;0.80;0.80;;;;;12.10;96270.00;;;;4974462;28;20191;-56
2023/05/24 06:16:53;;;;;;;17.63;1.23;;;;;11.90;96273.00;;;;4974461;28;20195;-56
2023/05/24 06:19:23;;;;;;;1.33;1.23;;;;;12.00;96272.00;;;;4974405;28;20693;-56
2023/05/24 06:21:51;;;;;;;1.33;1.23;;;;;11.90;96268.00;;;;4974319;28;20254;-56
2023/05/24 06:24:20;;;;;;;1.40;1.40;;;;;12.00;96275.00;;;;4974561;28;20313;-56
2023/05/24 06:26:47;;;;;;;4.27;2.13;;;;;12.00;96272.00;;;;4973034;28;20195;-56
2023/05/24 06:29:15;;;;;;;0.80;0.80;;;;;12.00;96264.00;;;;4974839;28;20195;-56
2023/05/24 06:31:42;;;;;;;1.67;1.57;;;;;12.00;96277.00;;;;4974501;28;20557;-56
2023/05/24 06:34:10;;;;;;;1.13;1.13;;;;;12.10;96278.00;;;;4974578;28;20195;-56
2023/05/24 06:36:41;;;;;;;1.63;1.57;;;;;12.10;96271.00;;;;4974274;28;20190;-56
2023/05/24 06:39:09;;;;;;;1.07;1.07;;;;;12.20;96283.00;;;;4974257;28;20183;-55
2023/05/24 06:41:37;;;;;;;1.50;1.40;;;;;12.20;96279.00;;;;4974104;28;20191;-56
2023/05/24 06:44:05;;;;;;;1.20;1.20;;;;;12.10;96272.00;;;;4974098;28;20258;-56
2023/05/24 06:46:34;;;;;;;1.20;1.10;;;;;12.10;96290.00;;;;4974680;28;20191;-56
2023/05/24 06:49:01;;;;;;;0.50;0.50;;;;;12.20;96288.00;;;;4975949;28;20538;-55
2023/05/24 06:51:29;;;;;;;1.00;1.00;;;;;12.20;96287.00;;;;4976599;28;20199;-57
2023/05/24 06:53:59;;;;;;;1.17;1.13;;;;;12.30;96293.00;;;;4977839;28;20195;-56
2023/05/24 06:56:27;;;;;;;1.50;1.47;;;;;12.20;96288.00;;;;4978005;28;20202;-56
2023/05/24 06:58:55;;;;;;;1.20;1.20;;;;;12.30;96290.00;;;;4977778;28;20202;-56
2023/05/24 07:01:22;;;;;;;1.10;1.10;;;;;12.30;96290.00;;;;4977983;28;20580;-56
2023/05/24 07:03:50;;;;;;;0.97;0.97;;;;;12.40;96289.00;;;;4977683;28;20270;-56
2023/05/24 07:06:17;;;;;;;1.00;1.00;;;;;12.40;96295.00;;;;4977673;28;20250;-55
2023/05/24 07:08:45;;;;;;;2.27;1.33;;;;;12.40;96301.00;;;;4977530;28;20677;-55
2023/05/24 07:11:14;;;;;;;0.83;0.83;;;;;12.50;96303.00;;;;4977483;28;20241;-55
2023/05/24 07:13:42;;;;;;;0.80;0.80;;;;;12.50;96305.00;;;;4977316;28;20685;-55
2023/05/24 07:16:10;;;;;;;0.93;0.93;;;;;12.50;96313.00;;;;4977401;28;20205;-55
2023/05/24 07:18:40;;;;;;;1.47;1.37;;;;;12.60;96318.00;;;;4977350;28;20198;-55
2023/05/24 07:21:07;;;;;;;1.97;1.87;;;;;12.60;96320.00;;;;4977765;28;20191;-55
2023/05/24 07:23:35;;;;;;;1.10;1.10;;;;;12.50;96322.00;;;;4977312;28;20219;-55
2023/05/24 07:26:03;;;;;;;1.27;1.17;;;;;12.50;96320.00;;;;4977424;28;20199;-55
2023/05/24 07:28:36;;;;;;;4.83;1.53;;;;;12.40;96322.00;;;;4977123;28;20222;-55
2023/05/24 07:31:04;;;;;;;1.23;1.23;;;;;12.30;96322.00;;;;4977098;28;20191;-55
2023/05/24 07:33:31;;;;;;;1.53;1.43;;;;;12.40;96332.00;;;;4977014;28;20242;-55
2023/05/24 07:35:59;;;;;;;1.17;1.17;;;;;12.30;96343.00;;;;4977021;28;20195;-55
2023/05/24 07:38:28;;;;;;;1.37;1.27;;;;;12.20;96342.00;;;;4975881;28;20240;-55
2023/05/24 07:40:56;;;;;;;1.47;1.43;;;;;12.50;96347.00;;;;4977587;28;20205;-55
2023/05/24 07:43:23;;;;;;;1.37;1.27;;;;;12.60;96347.00;;;;4977031;28;20219;-55
2023/05/24 07:45:52;;;;;;;0.90;0.90;;;;;12.60;96342.00;;;;4976988;28;20224;-55
2023/05/24 07:48:19;;;;;;;1.13;1.13;;;;;12.70;96339.00;;;;4976723;28;20732;-55
2023/05/24 07:50:48;;;;;;;1.27;1.17;;;;;12.90;96332.00;;;;4976708;28;20203;-55
2023/05/24 07:53:16;;;;;;;0.97;0.97;;;;;12.90;96342.00;;;;4976829;28;20574;-55
2023/05/24 07:55:44;;;;;;;1.70;1.63;;;;;13.00;96340.00;;;;4976765;28;20198;-55
2023/05/24 07:58:11;;;;;;;1.90;1.37;;;;;12.90;96342.00;;;;4975296;28;20215;-55
2023/05/24 08:00:40;;;;;;;0.97;0.97;;;;;13.00;96341.00;;;;4976155;28;20198;-55
2023/05/24 08:03:12;;;;;;;0.80;0.80;;;;;13.20;96344.00;;;;4976427;28;20236;-55
2023/05/24 08:05:39;;;;;;;3.90;1.73;;;;;13.00;96345.00;;;;4975110;28;20776;-55
2023/05/24 08:08:08;;;;;;;1.93;1.83;;;;;13.20;96351.00;;;;4976397;28;20203;-55
2023/05/24 08:10:35;;;;;;;1.33;1.23;;;;;13.00;96359.00;;;;4976846;28;20712;-55
2023/05/24 08:13:04;;;;;;;1.40;1.40;;;;;12.90;96351.00;;;;4976428;28;20689;-56
2023/05/24 08:15:32;;;;;;;8.10;3.93;;;;;12.90;96356.00;;;;4976294;28;20194;-55
2023/05/24 08:17:59;;;;;;;3.10;2.20;;;;;12.90;96361.00;;;;4976201;28;20554;-55
2023/05/24 08:20:28;;;;;;;1.70;1.60;;;;;13.10;96349.00;;;;4976180;28;20203;-55
2023/05/24 08:22:55;;;;;;;0.70;0.70;;;;;13.10;96357.00;;;;4976092;28;20238;-55
2023/05/24 08:25:23;;;;;;;1.47;1.40;;;;;13.00;96358.00;;;;4976016;28;20234;-55
2023/05/24 08:27:50;;;;;;;1.33;1.23;;;;;13.00;96361.00;;;;4976293;28;20548;-55
2023/05/24 08:30:18;;;;;;;0.90;0.90;;;;;13.00;96364.00;;;;4976388;28;20245;-55
2023/05/24 08:32:46;;;;;;;2.40;2.20;;;;;13.00;96362.00;;;;4976549;28;20594;-55
2023/05/24 08:35:13;;;;;;;1.20;1.20;;;;;13.00;96360.00;;;;4975924;28;20187;-55
2023/05/24 08:37:42;;;;;;;0.90;0.90;;;;;13.20;96358.00;;;;4975831;28;20561;-55
2023/05/24 08:40:10;;;;;;;2.43;1.47;;;;;13.40;96359.00;;;;4974580;28;20575;-56
2023/05/24 08:42:39;;;;;;;1.60;1.50;;;;;13.60;96356.00;;;;4975722;28;20559;-55
2023/05/24 08:45:11;;;;;;;1.33;1.23;;;;;13.80;96359.00;;;;4975656;28;20222;-55
2023/05/24 08:47:40;;;;;;;1.10;1.00;;;;;13.90;96359.00;;;;4975756;28;20226;-55
2023/05/24 08:50:08;;;;;;;1.70;1.60;;;;;14.00;96365.00;;;;4974412;28;20202;-55
2023/05/24 08:52:36;;;;;;;2.63;2.43;;;;;13.90;96362.00;;;;4975666;28;20222;-55
2023/05/24 08:55:07;;;;;;;2.23;2.07;;;;;14.00;96368.00;;;;4975810;28;20558;-55
2023/05/24 08:57:38;;;;;;;7.93;1.00;;;;;13.90;96364.00;;;;4975518;28;20274;-55
2023/05/24 09:00:08;;;;;;;1.90;1.80;;;;;13.90;96363.00;;;;4975802;28;20261;-55
2023/05/24 09:02:37;;;;;;;1.00;1.00;;;;;13.80;96364.00;;;;4974009;28;20238;-56
2023/05/24 09:05:15;;;;;;;8.43;2.30;;;;;13.90;96366.00;;;;4975322;28;20199;-54
2023/05/24 09:07:44;;;;;;;2.40;1.03;;;;;13.80;96371.00;;;;4975324;28;20273;-55
2023/05/24 09:10:14;;;;;;;1.50;1.40;;;;;13.80;96373.00;;;;4975270;28;20713;-55
2023/05/24 09:12:48;;;;;;;1.87;1.77;;;;;13.70;96376.00;;;;4974691;28;20218;-55
2023/05/24 09:15:15;;;;;;;1.63;1.37;;;;;13.50;96372.00;;;;4975411;28;20210;-55
2023/05/24 09:17:43;;;;;;;1.80;1.10;;;;;13.50;96371.00;;;;4974702;28;20206;-55
2023/05/24 09:20:12;;;;;;;2.17;1.87;;;;;13.40;96374.00;;;;4974951;28;20190;-55
2023/05/24 09:22:42;;;;;;;1.57;1.47;;;;;13.40;96377.00;;;;4974575;28;20217;-55
2023/05/24 09:25:13;;;;;;;1.47;1.37;;;;;13.20;96375.00;;;;4974898;28;20219;-55
2023/05/24 09:27:43;;;;;;;1.90;1.80;;;;;13.30;96370.00;;;;4975059;28;20186;-57
2023/05/24 09:30:11;;;;;;;1.50;1.40;;;;;13.10;96369.00;;;;4973691;28;20199;-55
2023/05/24 09:32:38;;;;;;;1.70;1.60;;;;;13.10;96371.00;;;;4974821;28;20222;-55
2023/05/24 09:35:09;;;;;;;0.90;0.90;;;;;13.00;96379.00;;;;4974857;28;20195;-55
2023/05/24 09:37:39;;;;;;;1.57;1.47;;;;;13.10;96365.00;;;;4974775;28;20199;-55
2023/05/24 09:40:17;;;;;;;1.30;1.30;;;;;13.20;96371.00;;;;4974656;28;20685;-55
2023/05/24 09:42:46;;;;;;;0.90;0.90;;;;;13.30;96372.00;;;;4974629;28;20716;-55
2023/05/24 09:45:13;;;;;;;1.63;1.53;;;;;13.40;96373.00;;;;4974536;28;20219;-55
2023/05/24 09:47:43;;;;;;;0.73;0.73;;;;;13.40;96369.00;;;;4974629;28;20278;-55
2023/05/24 09:50:13;;;;;;;2.03;1.87;;;;;13.50;96368.00;;;;4974577;28;20195;-55
2023/05/24 09:52:41;;;;;;;0.80;0.80;;;;;13.40;96364.00;;;;4974518;28;20698;-55
2023/05/24 09:55:13;;;;;;;5.13;1.63;;;;;13.50;96372.00;;;;4974543;28;20186;-55
2023/05/24 09:57:40;;;;;;;1.00;1.00;;;;;13.60;96370.00;;;;4974507;28;20684;-54
2023/05/24 10:00:16;;;;;;;4.43;1.37;;;;;13.70;96374.00;;;;4974742;28;20226;-54
2023/05/24 10:02:44;;;;;;;1.00;1.00;;;;;13.50;96383.00;;;;4974358;28;20234;-55
2023/05/24 10:05:12;;;;;;;1.07;1.07;;;;;13.60;96387.00;;;;4974326;28;20223;-55
2023/05/24 10:07:41;;;;;;;1.33;1.13;;;;;13.50;96382.00;;;;4974676;28;20206;-56
2023/05/24 10:10:10;;;;;;;0.87;0.87;;;;;13.40;96382.00;;;;4974364;28;20202;-55
2023/05/24 10:12:41;;;;;;;1.10;1.07;;;;;13.30;96389.00;;;;4974260;28;20273;-55
2023/05/24 10:15:12;;;;;;;0.93;0.93;;;;;13.30;96384.00;;;;4974284;28;20182;-55
2023/05/24 10:17:39;;;;;;;2.87;1.33;;;;;13.20;96385.00;;;;4974302;28;20278;-55
2023/05/24 10:20:08;;;;;;;0.97;0.97;;;;;13.40;96383.00;;;;4974200;28;20198;-56
2023/05/24 10:22:43;;;;;;;1.37;1.27;;;;;13.40;96383.00;;;;4973988;28;20218;-55
2023/05/24 10:25:15;;;;;;;0.80;0.80;;;;;13.30;96389.00;;;;4978169;28;20210;-55
2023/05/24 10:27:43;;;;;;;1.43;1.37;;;;;13.30;96384.00;;;;4978522;28;20187;-55
2023/05/24 10:30:20;;;;;;;1.03;1.03;;;;;13.40;96379.00;;;;4978106;28;20195;-55
2023/05/24 10:32:48;;;;;;;17.27;1.53;;;;;13.60;96377.00;;;;4978280;28;20276;-55
2023/05/24 10:35:18;;;;;;;2.40;2.23;;;;;13.60;96378.00;;;;4978026;28;20194;-55
2023/05/24 10:37:47;;;;;;;4.67;1.80;;;;;13.70;96382.00;;;;4978101;28;20191;-55
2023/05/24 10:40:18;;;;;;;1.03;1.03;;;;;13.70;96384.00;;;;4977974;28;20203;-55
2023/05/24 10:42:46;;;;;;;0.80;0.80;;;;;13.70;96374.00;;;;4978682;28;20677;-55
2023/05/24 10:45:32;;;;;;;1.10;1.10;;;;;13.70;96376.00;;;;4978644;28;20230;-55
2023/05/24 10:48:07;;;;;;;1.60;1.27;;;;;13.70;96369.00;;;;4976596;28;20226;-55
2023/05/24 10:50:35;;;;;;;2.83;1.90;;;;;13.80;96367.00;;;;4977981;28;20638;-56
2023/05/24 10:53:12;;;;;;;0.90;0.90;;;;;13.90;96365.00;;;;4978258;28;20596;-56
2023/05/24 10:55:56;;;;;;;0.93;0.93;;;;;14.10;96363.00;;;;4978229;28;20716;-54
2023/05/24 10:58:29;;;;;;;0.93;0.93;;;;;13.90;96369.00;;;;4976926;28;20211;-57
2023/05/24 11:00:58;;;;;;;0.93;0.93;;;;;14.10;96364.00;;;;4977942;28;20183;-55
2023/05/24 11:03:32;;;;;;;1.37;1.00;;;;;14.00;96357.00;;;;4977395;28;20234;-55
2023/05/24 11:06:00;;;;;;;0.80;0.80;;;;;14.20;96356.00;;;;4977510;28;20203;-55
2023/05/24 11:08:32;;;;;;;0.97;0.97;;;;;14.20;96348.00;;;;4977454;28;20208;-55
2023/05/24 11:11:04;;;;;;;2.43;1.30;;;;;14.20;96351.00;;;;4977452;28;20187;-55
2023/05/24 11:13:32;;;;;;;1.07;1.07;;;;;14.50;96346.00;;;;4976053;28;20230;-55
2023/05/24 11:16:02;;;;;;;2.00;1.90;;;;;14.90;96336.00;;;;4975975;28;20666;-55
2023/05/24 11:18:31;;;;;;;1.20;1.20;;;;;15.20;96333.00;;;;4977405;28;20186;-55
2023/05/24 11:21:02;;;;;;;1.90;1.50;;;;;15.20;96333.00;;;;4977193;28;20258;-55
2023/05/24 11:23:30;;;;;;;1.23;1.23;;;;;15.40;96333.00;;;;4977641;28;20270;-55
2023/05/24 11:25:58;;;;;;;2.00;1.90;;;;;15.50;96327.00;;;;4977012;28;20226;-56
2023/05/24 11:28:25;;;;;;;1.37;0.93;;;;;15.70;96319.00;;;;4977110;28;20194;-56
2023/05/24 11:30:53;;;;;;;0.90;0.90;;;;;16.00;96324.00;;;;4977493;28;20198;-55
2023/05/24 11:33:23;;;;;;;1.03;1.03;;;;;15.80;96319.00;;;;4975726;28;20229;-56
2023/05/24 11:35:53;;;;;;;0.90;0.90;;;;;15.80;96329.00;;;;4976195;28;20662;-55
2023/05/24 11:38:21;;;;;;;2.30;2.10;;;;;15.80;96313.00;;;;4977268;28;20206;-55
2023/05/24 11:40:50;;;;;;;1.03;1.03;;;;;16.30;96302.00;;;;4976938;28;20202;-55
2023/05/24 11:43:19;;;;;;;1.47;1.37;;;;;16.90;96305.00;;;;4976844;28;20281;-55
2023/05/24 11:45:48;;;;;;;1.83;1.53;;;;;17.30;96299.00;;;;4977032;28;20222;-55
2023/05/24 11:48:16;;;;;;;1.33;1.33;;;;;17.70;96326.00;;;;4976785;28;20198;-55
2023/05/24 11:50:47;;;;;;;1.67;1.57;;;;;16.90;96290.00;;;;4976762;28;20577;-56
2023/05/24 11:53:16;;;;;;;5.07;2.23;;;;;17.20;96306.00;;;;4976768;28;20717;-56
2023/05/24 11:55:44;;;;;;;0.80;0.80;;;;;16.90;96295.00;;;;4976988;28;20195;-56
2023/05/24 11:58:17;;;;;;;1.10;1.10;;;;;17.40;96292.00;;;;4975366;28;20242;-56
2023/05/24 12:00:44;;;;;;;1.53;1.43;;;;;18.00;96283.00;;;;4976639;28;20183;-56
2023/05/24 12:03:12;;;;;;;5.20;1.07;;;;;18.30;96286.00;;;;4975116;28;20234;-55
2023/05/24 12:05:39;;;;;;;1.47;1.37;;;;;17.70;96283.00;;;;4975158;28;20299;-55
2023/05/24 12:08:14;;;;;;;1.10;1.10;;;;;18.20;96279.00;;;;4976435;28;20670;-56
2023/05/24 12:10:43;;;;;;;1.47;1.37;;;;;18.80;96275.00;;;;4976802;28;20592;-56
2023/05/24 12:13:21;;;;;;;0.63;0.63;;;;;19.20;96280.00;;;;4976940;28;20222;-56
2023/05/24 12:15:51;;;;;;;2.57;1.23;;;;;19.50;96275.00;;;;4976492;28;20237;-56
2023/05/24 12:18:19;;;;;;;3.30;1.90;;;;;18.80;96272.00;;;;4976332;28;20727;-56
2023/05/24 12:20:47;;;;;;;0.80;0.80;;;;;18.40;96273.00;;;;4976299;28;20202;-56
2023/05/24 12:23:16;;;;;;;2.73;1.70;;;;;19.10;96268.00;;;;4976216;28;20697;-56
2023/05/24 12:25:44;;;;;;;1.00;1.00;;;;;19.70;96274.00;;;;4976180;28;20226;-56